createdAt,value
2022-08-14T00:02:16.944Z,52.80
2022-08-14T00:04:45.517Z,52.80
2022-08-14T00:07:15.109Z,52.70
2022-08-14T00:10:01.696Z,52.80
2022-08-14T00:12:33.916Z,52.80
2022-08-14T00:15:10.768Z,52.80
2022-08-14T00:17:47.236Z,52.80
2022-08-14T00:20:23.839Z,52.80
2022-08-14T00:22:57.860Z,52.80
2022-08-14T00:25:30.537Z,53.50
2022-08-14T00:28:15.552Z,52.80
2022-08-14T00:30:46.644Z,52.80
2022-08-14T00:33:16.046Z,53.40
2022-08-14T00:36:36.909Z,52.80
2022-08-14T00:38:35.173Z,52.80
2022-08-14T00:41:04.533Z,52.70
2022-08-14T00:43:32.715Z,52.80
2022-08-14T00:46:05.272Z,52.80
2022-08-14T00:48:38.494Z,52.80
2022-08-14T00:51:08.744Z,52.80
2022-08-14T00:53:40.195Z,52.80
2022-08-14T00:56:11.359Z,52.70
2022-08-14T00:58:45.466Z,52.80
2022-08-14T01:01:19.073Z,52.70
2022-08-14T01:03:49.756Z,52.70
2022-08-14T01:06:21.461Z,52.80
2022-08-14T01:08:59.490Z,52.70
2022-08-14T01:11:35.277Z,52.70
2022-08-14T01:14:05.019Z,52.80
2022-08-14T01:16:53.129Z,52.80
2022-08-14T01:19:39.125Z,52.60
2022-08-14T01:22:12.764Z,52.60
2022-08-14T01:24:43.537Z,52.60
2022-08-14T01:27:18.029Z,52.70
2022-08-14T01:30:03.332Z,52.60
2022-08-14T01:32:37.599Z,52.60
2022-08-14T01:35:19.689Z,52.70
2022-08-14T01:38:00.907Z,52.70
2022-08-14T01:40:36.375Z,52.60
2022-08-14T01:43:14.268Z,52.70
2022-08-14T01:45:42.192Z,52.60
2022-08-14T01:48:13.343Z,52.70
2022-08-14T01:50:44.087Z,52.60
2022-08-14T01:53:14.595Z,52.60
2022-08-14T01:55:42.682Z,52.70
2022-08-14T01:58:19.764Z,52.60
2022-08-14T02:00:58.453Z,52.60
2022-08-14T02:03:30.835Z,53.20
2022-08-14T02:06:03.620Z,52.60
2022-08-14T02:08:53.115Z,52.60
2022-08-14T02:11:24.240Z,52.60
2022-08-14T02:13:56.546Z,52.60
2022-08-14T02:16:26.672Z,52.70
2022-08-14T02:18:56.579Z,52.60
2022-08-14T02:21:27.288Z,52.60
2022-08-14T02:23:57.435Z,52.60
2022-08-14T02:26:29.307Z,52.60
2022-08-14T02:29:03.540Z,52.60
2022-08-14T02:31:41.860Z,52.70
2022-08-14T02:34:20.081Z,52.60
2022-08-14T02:37:05.062Z,52.60
2022-08-14T02:39:39.327Z,52.60
2022-08-14T02:42:13.037Z,52.60
2022-08-14T02:44:48.837Z,52.60
2022-08-14T02:47:20.770Z,52.60
2022-08-14T02:49:50.497Z,52.70
2022-08-14T02:52:56.674Z,52.70
2022-08-14T02:55:19.577Z,52.60
2022-08-14T02:57:57.833Z,52.70
2022-08-14T03:00:26.569Z,52.70
2022-08-14T03:02:59.100Z,53.00
2022-08-14T03:05:33.011Z,52.60
2022-08-14T03:08:09.952Z,52.60
2022-08-14T03:10:41.859Z,52.60
2022-08-14T03:13:19.185Z,52.60
2022-08-14T03:15:51.027Z,52.60
2022-08-14T03:18:31.810Z,52.60
2022-08-14T03:21:02.604Z,53.20
2022-08-14T03:23:37.858Z,52.60
2022-08-14T03:26:12.610Z,52.60
2022-08-14T03:28:48.883Z,52.60
2022-08-14T03:31:22.095Z,52.60
2022-08-14T03:33:54.490Z,52.60
2022-08-14T03:37:38.010Z,52.60
2022-08-14T03:39:21.098Z,52.60
2022-08-14T03:41:55.019Z,52.60
2022-08-14T03:45:19.529Z,52.60
2022-08-14T03:47:12.085Z,52.60
2022-08-14T03:49:42.247Z,52.60
2022-08-14T03:52:37.855Z,52.60
2022-08-14T03:54:59.793Z,52.50
2022-08-14T03:57:32.902Z,52.60
2022-08-14T04:00:13.813Z,52.60
2022-08-14T04:02:57.093Z,52.60
2022-08-14T04:05:26.832Z,52.50
2022-08-14T04:08:08.323Z,52.60
2022-08-14T04:10:42.862Z,52.60
2022-08-14T04:13:16.444Z,52.60
2022-08-14T04:16:01.274Z,52.60
2022-08-14T04:18:32.191Z,52.60
2022-08-14T04:21:02.455Z,52.60
2022-08-14T04:23:33.679Z,52.60
2022-08-14T04:26:08.481Z,52.60
2022-08-14T04:29:07.825Z,52.60
2022-08-14T04:32:57.834Z,52.60
2022-08-14T04:34:28.054Z,52.60
2022-08-14T04:37:13.665Z,52.60
2022-08-14T04:40:08.710Z,52.60
2022-08-14T04:42:54.693Z,52.60
2022-08-14T04:45:25.285Z,52.60
2022-08-14T04:48:38.760Z,52.60
2022-08-14T04:51:05.251Z,52.60
2022-08-14T04:53:36.243Z,52.60
2022-08-14T04:56:30.715Z,52.70
2022-08-14T04:59:10.349Z,52.60
2022-08-14T05:01:48.812Z,52.60
2022-08-14T05:04:20.432Z,52.70
2022-08-14T05:06:49.864Z,52.60
2022-08-14T05:09:22.599Z,52.60
2022-08-14T05:11:51.374Z,52.60
2022-08-14T05:14:46.676Z,52.60
2022-08-14T05:17:11.867Z,52.60
2022-08-14T05:19:44.972Z,52.50
2022-08-14T05:22:28.095Z,52.60
2022-08-14T05:24:56.072Z,52.60
2022-08-14T05:27:24.230Z,52.60
2022-08-14T05:29:55.093Z,52.60
2022-08-14T05:32:36.710Z,52.50
2022-08-14T05:35:05.639Z,52.50
2022-08-14T05:37:35.849Z,52.50
2022-08-14T05:40:04.536Z,52.70
2022-08-14T05:42:33.968Z,52.60
2022-08-14T05:45:04.098Z,52.50
2022-08-14T05:47:39.526Z,52.60
2022-08-14T05:50:17.326Z,52.50
2022-08-14T05:52:48.016Z,52.60
2022-08-14T05:55:16.720Z,52.60
2022-08-14T05:57:49.580Z,52.50
2022-08-14T06:00:29.011Z,52.50
2022-08-14T06:03:00.495Z,52.60
2022-08-14T06:05:29.436Z,52.50
2022-08-14T06:07:58.376Z,52.60
2022-08-14T06:10:28.140Z,52.50
2022-08-14T06:12:58.110Z,53.20
2022-08-14T06:15:29.899Z,52.50
2022-08-14T06:18:01.769Z,52.50
2022-08-14T06:20:30.510Z,52.50
2022-08-14T06:22:59.074Z,52.50
2022-08-14T06:25:28.261Z,52.60
2022-08-14T06:27:58.154Z,52.50
2022-08-14T06:30:46.541Z,52.60
2022-08-14T06:33:18.024Z,52.60
2022-08-14T06:35:46.751Z,52.50
2022-08-14T06:38:17.714Z,52.60
2022-08-14T06:40:46.434Z,52.60
2022-08-14T06:43:16.091Z,52.50
2022-08-14T06:45:50.400Z,52.80
2022-08-14T06:48:25.501Z,52.50
2022-08-14T06:50:55.166Z,52.50
2022-08-14T06:53:27.843Z,52.50
2022-08-14T06:55:58.535Z,52.50
2022-08-14T06:58:30.824Z,52.50
2022-08-14T07:01:24.812Z,52.50
2022-08-14T07:04:22.544Z,52.40
2022-08-14T07:06:51.463Z,52.30
2022-08-14T07:09:23.417Z,52.30
2022-08-14T07:11:51.803Z,52.30
2022-08-14T07:14:20.004Z,52.30
2022-08-14T07:16:47.946Z,52.30
2022-08-14T07:19:20.875Z,52.30
2022-08-14T07:21:50.166Z,52.30
2022-08-14T07:24:21.728Z,52.40
2022-08-14T07:26:54.358Z,52.30
2022-08-14T07:29:26.317Z,53.00
2022-08-14T07:31:56.897Z,52.40
2022-08-14T07:34:40.576Z,52.40
2022-08-14T07:37:11.049Z,52.40
2022-08-14T07:39:39.072Z,52.30
2022-08-14T07:42:11.453Z,52.40
2022-08-14T07:44:46.433Z,52.40
2022-08-14T07:47:17.089Z,52.40
2022-08-14T07:49:59.328Z,52.40
2022-08-14T07:52:30.245Z,52.40
2022-08-14T07:54:58.375Z,52.40
2022-08-14T07:57:27.408Z,52.50
2022-08-14T07:59:55.565Z,52.50
2022-08-14T08:02:23.909Z,53.10
2022-08-14T08:04:58.853Z,52.50
2022-08-14T08:07:29.569Z,52.50
2022-08-14T08:10:01.059Z,52.50
2022-08-14T08:12:32.620Z,52.50
2022-08-14T08:15:07.269Z,52.50
2022-08-14T08:17:38.665Z,52.60
2022-08-14T08:20:14.881Z,52.60
2022-08-14T08:22:48.379Z,52.60
2022-08-14T08:25:18.812Z,52.60
2022-08-14T08:27:56.698Z,52.60
2022-08-14T08:30:24.994Z,52.70
2022-08-14T08:32:54.831Z,52.70
2022-08-14T08:35:46.554Z,53.30
2022-08-14T08:39:18.061Z,52.70
2022-08-14T08:41:05.826Z,52.70
2022-08-14T08:43:46.152Z,52.70
2022-08-14T08:46:24.082Z,52.70
2022-08-14T08:51:30.744Z,52.70
2022-08-14T08:54:01.265Z,52.70
2022-08-14T08:56:40.694Z,52.70
2022-08-14T08:59:21.551Z,52.70
2022-08-14T09:01:56.371Z,52.70
2022-08-14T09:04:26.403Z,52.70
2022-08-14T09:07:09.484Z,52.70
2022-08-14T09:09:54.303Z,52.70
2022-08-14T09:12:31.842Z,53.40
2022-08-14T09:15:02.163Z,52.70
2022-08-14T09:17:30.859Z,52.70
2022-08-14T09:20:01.985Z,52.70
2022-08-14T09:22:35.766Z,52.70
2022-08-14T09:25:07.253Z,52.70
2022-08-14T09:27:36.085Z,52.70
2022-08-14T09:30:31.362Z,52.70
2022-08-14T09:33:13.179Z,52.70
2022-08-14T09:35:56.882Z,52.70
2022-08-14T09:38:38.096Z,52.70
2022-08-14T09:41:19.630Z,52.70
2022-08-14T09:43:58.968Z,52.70
2022-08-14T09:46:27.784Z,52.70
2022-08-14T09:49:02.356Z,52.70
2022-08-14T09:51:32.776Z,52.70
2022-08-14T09:54:18.470Z,52.70
2022-08-14T09:56:56.816Z,52.70
2022-08-14T09:59:28.246Z,52.70
2022-08-14T10:01:57.069Z,52.70
2022-08-14T10:04:33.961Z,52.70
2022-08-14T10:07:05.215Z,52.70
2022-08-14T10:09:35.268Z,52.70
2022-08-14T10:12:05.040Z,52.80
2022-08-14T10:14:37.011Z,52.70
2022-08-14T10:17:07.072Z,52.80
2022-08-14T10:19:47.883Z,52.80
2022-08-14T10:23:14.855Z,52.70
2022-08-14T10:25:14.190Z,52.80
2022-08-14T10:27:46.431Z,52.80
2022-08-14T10:30:22.131Z,52.80
2022-08-14T10:32:52.427Z,52.80
2022-08-14T10:35:23.278Z,52.80
2022-08-14T10:38:02.460Z,52.80
2022-08-14T10:40:37.961Z,52.80
2022-08-14T10:43:19.277Z,52.80
2022-08-14T10:46:03.756Z,52.80
2022-08-14T10:48:57.067Z,52.80
2022-08-14T10:51:26.719Z,52.80
2022-08-14T10:54:01.305Z,52.80
2022-08-14T10:56:45.892Z,52.80
2022-08-14T10:59:14.150Z,53.40
2022-08-14T11:01:42.729Z,52.80
2022-08-14T11:04:28.630Z,52.80
2022-08-14T11:06:59.562Z,52.80
2022-08-14T11:09:32.171Z,52.80
2022-08-14T11:12:34.133Z,52.80
2022-08-14T11:15:01.816Z,52.80
2022-08-14T11:17:32.351Z,53.50
2022-08-14T11:20:02.619Z,52.80
2022-08-14T11:22:55.939Z,52.80
2022-08-14T11:25:23.486Z,52.80
2022-08-14T11:27:55.211Z,52.80
2022-08-14T11:30:51.225Z,52.80
2022-08-14T11:33:12.994Z,52.80
2022-08-14T11:35:47.592Z,52.80
2022-08-14T11:38:18.071Z,52.80
2022-08-14T11:40:47.548Z,52.80
2022-08-14T11:43:17.720Z,52.80
2022-08-14T11:45:49.257Z,53.50
2022-08-14T11:49:02.562Z,52.90
2022-08-14T11:51:15.421Z,52.80
2022-08-14T11:53:50.835Z,52.90
2022-08-14T11:56:25.731Z,52.80
2022-08-14T11:58:59.419Z,52.90
2022-08-14T12:01:30.904Z,52.90
2022-08-14T12:04:21.738Z,52.80
2022-08-14T12:06:58.701Z,52.80
2022-08-14T12:09:32.088Z,52.80
2022-08-14T12:12:01.062Z,52.80
2022-08-14T12:14:35.470Z,52.80
2022-08-14T12:17:12.203Z,52.80
2022-08-14T12:19:54.362Z,52.80
2022-08-14T12:22:35.487Z,52.80
2022-08-14T12:25:10.676Z,52.80
2022-08-14T12:27:46.686Z,52.80
2022-08-14T12:30:39.803Z,52.90
2022-08-14T12:33:25.498Z,52.80
2022-08-14T12:35:57.548Z,52.80
2022-08-14T12:38:38.079Z,53.50
2022-08-14T12:41:11.236Z,52.80
2022-08-14T12:43:51.451Z,52.80
2022-08-14T12:46:27.482Z,52.80
2022-08-14T12:48:58.604Z,52.90
2022-08-14T12:51:28.321Z,52.80
2022-08-14T12:54:00.010Z,52.90
2022-08-14T12:56:33.502Z,52.90
2022-08-14T12:59:03.462Z,52.90
2022-08-14T13:01:59.084Z,52.90
2022-08-14T13:04:23.919Z,52.90
2022-08-14T13:06:52.830Z,52.90
2022-08-14T13:09:27.934Z,52.90
2022-08-14T13:12:33.368Z,52.90
2022-08-14T13:14:57.772Z,52.80
2022-08-14T13:17:28.448Z,52.80
2022-08-14T13:19:58.297Z,52.90
2022-08-14T13:22:33.172Z,52.90
2022-08-14T13:25:07.756Z,52.80
2022-08-14T13:27:39.138Z,52.80
2022-08-14T13:30:21.169Z,52.70
2022-08-14T13:32:54.480Z,52.80
2022-08-14T13:35:25.988Z,52.80
2022-08-14T13:37:54.335Z,52.80
2022-08-14T13:40:26.545Z,52.90
2022-08-14T13:42:57.065Z,53.50
2022-08-14T13:45:33.556Z,52.90
2022-08-14T13:48:32.658Z,52.90
2022-08-14T13:51:10.609Z,53.00
2022-08-14T13:54:07.189Z,53.00
2022-08-14T13:56:38.930Z,53.00
2022-08-14T13:59:07.954Z,52.90
2022-08-14T14:01:43.556Z,52.90
2022-08-14T14:04:18.821Z,52.90
2022-08-14T14:06:49.376Z,53.00
2022-08-14T14:09:21.713Z,53.00
2022-08-14T14:11:52.895Z,53.00
2022-08-14T14:14:45.173Z,52.90
2022-08-14T14:17:14.200Z,52.90
2022-08-14T14:19:46.570Z,52.90
2022-08-14T14:22:36.081Z,52.90
2022-08-14T14:25:05.380Z,53.00
2022-08-14T14:27:40.978Z,53.00
2022-08-14T14:30:15.088Z,53.00
2022-08-14T14:33:05.340Z,53.00
2022-08-14T14:35:45.296Z,52.90
2022-08-14T14:38:16.960Z,53.00
2022-08-14T14:40:52.897Z,52.90
2022-08-14T14:43:26.316Z,52.90
2022-08-14T14:45:56.238Z,52.90
2022-08-14T14:48:28.706Z,53.00
2022-08-14T14:51:01.414Z,52.90
2022-08-14T14:53:39.220Z,53.00
2022-08-14T14:56:51.848Z,53.00
2022-08-14T14:58:57.598Z,53.70
2022-08-14T15:01:26.580Z,53.00
2022-08-14T15:03:56.437Z,53.00
2022-08-14T15:06:30.415Z,53.00
2022-08-14T15:09:02.198Z,53.00
2022-08-14T15:11:33.334Z,53.00
2022-08-14T15:14:01.375Z,53.10
2022-08-14T15:16:49.660Z,53.00
2022-08-14T15:19:18.548Z,53.00
2022-08-14T15:21:48.311Z,53.10
2022-08-14T15:24:20.622Z,53.00
2022-08-14T15:26:52.159Z,53.00
2022-08-14T15:29:20.109Z,53.00
2022-08-14T15:31:48.022Z,53.10
2022-08-14T15:34:44.932Z,53.10
2022-08-14T15:37:12.785Z,53.00
2022-08-14T15:39:41.870Z,53.00
2022-08-14T15:42:16.317Z,53.10
2022-08-14T15:44:58.016Z,53.00
2022-08-14T15:47:30.802Z,53.10
2022-08-14T15:50:00.528Z,53.10
2022-08-14T15:52:34.930Z,53.10
2022-08-14T15:55:05.689Z,53.10
2022-08-14T15:57:34.646Z,53.10
2022-08-14T16:00:37.811Z,53.10
2022-08-14T16:03:14.033Z,53.10
2022-08-14T16:05:43.369Z,53.10
2022-08-14T16:08:28.913Z,53.10
2022-08-14T16:10:58.914Z,53.10
2022-08-14T16:13:39.723Z,53.10
2022-08-14T16:16:48.929Z,53.10
2022-08-14T16:19:03.206Z,53.10
2022-08-14T16:21:31.952Z,53.10
2022-08-14T16:24:01.697Z,53.10
2022-08-14T16:26:33.183Z,53.10
2022-08-14T16:29:05.306Z,53.10
2022-08-14T16:31:36.595Z,53.10
2022-08-14T16:34:45.389Z,53.00
2022-08-14T16:36:54.396Z,53.10
2022-08-14T16:39:24.744Z,53.10
2022-08-14T16:41:53.986Z,53.10
2022-08-14T16:44:32.891Z,53.10
2022-08-14T16:47:05.461Z,53.10
2022-08-14T16:50:04.182Z,53.20
2022-08-14T16:52:25.813Z,53.10
2022-08-14T16:55:17.836Z,53.00
2022-08-14T16:57:50.375Z,53.10
2022-08-14T17:00:43.878Z,53.10
2022-08-14T17:03:13.739Z,53.20
2022-08-14T17:05:46.956Z,53.10
2022-08-14T17:08:32.370Z,53.10
2022-08-14T17:11:09.965Z,53.10
2022-08-14T17:13:59.168Z,53.80
2022-08-14T17:16:28.669Z,53.10
2022-08-14T17:19:01.759Z,53.10
2022-08-14T17:21:32.594Z,53.10
2022-08-14T17:24:56.493Z,53.10
2022-08-14T17:26:55.302Z,53.10
2022-08-14T17:29:29.604Z,53.10
2022-08-14T17:32:02.096Z,53.10
2022-08-14T17:34:46.601Z,53.10
2022-08-14T17:37:26.001Z,53.20
2022-08-14T17:43:02.210Z,53.10
2022-08-14T17:45:46.722Z,53.20
2022-08-14T17:49:15.248Z,53.10
2022-08-14T17:51:24.072Z,53.10
2022-08-14T17:54:03.101Z,53.20
2022-08-14T17:56:33.011Z,53.20
2022-08-14T17:59:07.332Z,53.20
2022-08-14T18:01:38.848Z,53.20
2022-08-14T18:04:28.239Z,53.20
2022-08-14T18:07:16.499Z,53.20
2022-08-14T18:09:57.335Z,53.20
2022-08-14T18:12:37.035Z,53.10
2022-08-14T18:15:14.615Z,53.10
2022-08-14T18:17:50.740Z,53.10
2022-08-14T18:21:40.419Z,53.10
2022-08-14T18:23:13.148Z,53.10
2022-08-14T18:25:48.011Z,53.10
2022-08-14T18:28:51.192Z,53.10
2022-08-14T18:31:44.195Z,53.10
2022-08-14T18:34:30.816Z,53.10
2022-08-14T18:37:11.051Z,53.10
2022-08-14T18:40:03.211Z,53.10
2022-08-14T18:42:45.969Z,53.10
2022-08-14T18:45:28.513Z,53.10
2022-08-14T18:48:50.069Z,53.10
2022-08-14T18:51:46.205Z,53.10
2022-08-14T18:54:29.955Z,53.10
2022-08-14T18:57:02.831Z,53.00
2022-08-14T18:59:35.785Z,53.70
2022-08-14T19:02:42.685Z,53.10
2022-08-14T19:05:13.450Z,53.00
2022-08-14T19:07:48.104Z,53.10
2022-08-14T19:10:31.879Z,53.20
2022-08-14T19:13:11.597Z,53.00
2022-08-14T19:15:42.943Z,53.20
2022-08-14T19:18:26.652Z,53.20
2022-08-14T19:20:59.062Z,53.10
2022-08-14T19:23:44.433Z,53.10
2022-08-14T19:26:35.301Z,53.10
2022-08-14T19:29:23.682Z,53.10
2022-08-14T19:31:55.271Z,53.10
2022-08-14T19:34:52.759Z,53.10
2022-08-14T19:37:44.449Z,53.10
2022-08-14T19:40:15.361Z,53.10
2022-08-14T19:42:49.602Z,53.80
2022-08-14T19:45:18.608Z,53.10
2022-08-14T19:47:49.671Z,53.10
2022-08-14T19:50:37.977Z,53.10
2022-08-14T19:53:16.922Z,53.10
2022-08-14T19:55:59.828Z,53.10
2022-08-14T19:58:55.441Z,53.10
2022-08-14T20:01:37.520Z,53.10
2022-08-14T20:04:45.364Z,53.10
2022-08-14T20:07:00.091Z,53.10
2022-08-14T20:11:06.717Z,53.10
2022-08-14T20:12:29.239Z,53.10
2022-08-14T20:15:06.847Z,53.10
2022-08-14T20:17:40.631Z,53.10
2022-08-14T20:20:25.331Z,53.10
2022-08-14T20:23:11.576Z,53.10
2022-08-14T20:25:45.714Z,53.10
2022-08-14T20:28:35.353Z,53.10
2022-08-14T20:31:17.812Z,53.10
2022-08-14T20:34:06.464Z,53.10
2022-08-14T20:36:39.655Z,53.10
2022-08-14T20:39:15.213Z,53.00
2022-08-14T20:41:49.878Z,53.00
2022-08-14T20:44:41.964Z,53.00
2022-08-14T20:47:16.372Z,53.10
2022-08-14T20:49:44.996Z,53.10
2022-08-14T20:52:19.104Z,53.10
2022-08-14T20:54:51.435Z,53.10
2022-08-14T20:57:20.537Z,53.10
2022-08-14T20:59:52.899Z,53.10
2022-08-14T21:02:38.563Z,53.10
2022-08-14T21:05:19.359Z,53.10
2022-08-14T21:07:50.203Z,53.10
2022-08-14T21:10:35.344Z,53.00
2022-08-14T21:13:26.583Z,53.00
2022-08-14T21:15:57.588Z,53.10
2022-08-14T21:18:29.618Z,53.10
2022-08-14T21:20:58.985Z,53.00
2022-08-14T21:23:32.748Z,53.00
2022-08-14T21:26:05.345Z,53.00
2022-08-14T21:28:35.391Z,53.10
2022-08-14T21:31:05.567Z,53.00
2022-08-14T21:33:37.543Z,53.00
2022-08-14T21:36:09.943Z,53.00
2022-08-14T21:38:42.302Z,53.00
2022-08-14T21:41:41.625Z,53.00
2022-08-14T21:44:17.401Z,53.00
2022-08-14T21:46:50.309Z,53.00
2022-08-14T21:49:22.827Z,53.00
2022-08-14T21:52:00.987Z,53.00
2022-08-14T21:54:49.504Z,53.00
2022-08-14T21:57:55.997Z,53.00
2022-08-14T22:00:35.448Z,53.00
2022-08-14T22:03:05.401Z,53.00
2022-08-14T22:05:35.558Z,53.00
2022-08-14T22:08:07.388Z,53.00
2022-08-14T22:10:36.227Z,53.00
2022-08-14T22:13:05.293Z,53.00
2022-08-14T22:15:33.753Z,53.00
2022-08-14T22:18:04.156Z,53.00
2022-08-14T22:20:35.073Z,53.00
2022-08-14T22:23:08.531Z,53.00
2022-08-14T22:25:41.018Z,53.00
2022-08-14T22:28:19.306Z,53.00
2022-08-14T22:30:55.306Z,53.00
2022-08-14T22:33:30.998Z,53.00
2022-08-14T22:36:01.533Z,53.00
2022-08-14T22:38:37.480Z,52.90
2022-08-14T22:41:26.198Z,53.00
2022-08-14T22:43:59.222Z,53.00
2022-08-14T22:46:27.764Z,52.90
2022-08-14T22:48:57.615Z,52.90
2022-08-14T22:51:27.831Z,52.90
2022-08-14T22:53:58.141Z,52.90
2022-08-14T22:56:30.240Z,52.90
2022-08-14T22:59:00.047Z,52.90
2022-08-14T23:01:56.182Z,52.90
2022-08-14T23:04:34.219Z,52.90
2022-08-14T23:07:22.261Z,52.90
2022-08-14T23:09:56.379Z,52.90
2022-08-14T23:12:31.501Z,52.90
2022-08-14T23:15:00.910Z,52.90
2022-08-14T23:17:38.762Z,52.90
2022-08-14T23:20:18.478Z,52.90
2022-08-14T23:22:51.108Z,52.90
2022-08-14T23:25:57.558Z,52.90
2022-08-14T23:28:33.375Z,52.90
2022-08-14T23:30:57.292Z,52.90
2022-08-14T23:33:29.155Z,52.90
2022-08-14T23:35:58.892Z,52.90
2022-08-14T23:38:30.674Z,52.90
2022-08-14T23:41:00.765Z,52.90
2022-08-14T23:43:30.906Z,52.90
2022-08-14T23:45:59.837Z,52.90
2022-08-14T23:48:28.646Z,52.90
2022-08-14T23:50:58.994Z,52.90
2022-08-14T23:53:48.591Z,52.90
2022-08-14T23:56:19.808Z,52.90
2022-08-14T23:59:00.287Z,52.90
